Terminal Aerodrome Forecast
Issued by NWS

Home | Current Version | Previous Version | Text Only | Print | Product List | Glossary On
Versions: 1 2 3 4 5 6 7 8 9 10 11 12 13 14 15 16 17 18 19 20 21 22 23 24 25
000
FTUS45 KRIW 230500
TAFPNA
TAF
KPNA 230524Z 2306/2406 30005KT P6SM BKN045
     FM231000 29004KT P6SM VCFG SCT005 BKN030
     FM231600 VRB05KT P6SM SCT030 BKN050
     FM231900 29011KT P6SM SCT060
     FM240300 29007KT P6SM SKC
      AMD LTD TO CLD VIS AND WIND=

USA.gov is the U.S. government's official web portal to all federal, state and local government web resources and services.